TimeCDT,TemperatureF,Dew PointF,Humidity,Sea Level PressureIn,VisibilityMPH,Wind Direction,Wind SpeedMPH,Gust SpeedMPH,PrecipitationIn,Events,Conditions,WindDirDegrees,DateUTC
12:53 AM,35.1,26.1,70,30.23,10.0,NNW,11.5,-,N/A,,Clear,330,2014-03-22 05:53:00
1:53 AM,32.0,24.1,73,30.25,10.0,North,9.2,-,N/A,,Clear,350,2014-03-22 06:53:00
2:53 AM,30.0,23.0,75,30.27,10.0,North,8.1,-,N/A,,Clear,350,2014-03-22 07:53:00
3:53 AM,28.9,21.9,75,30.28,10.0,NNW,8.1,-,N/A,,Clear,340,2014-03-22 08:53:00
4:53 AM,27.0,21.0,78,30.29,10.0,NNW,9.2,-,N/A,,Clear,330,2014-03-22 09:53:00
5:53 AM,26.1,21.0,81,30.31,10.0,NW,9.2,-,N/A,,Clear,320,2014-03-22 10:53:00
6:53 AM,25.0,19.9,81,30.33,10.0,NNW,6.9,-,N/A,,Clear,330,2014-03-22 11:53:00
7:53 AM,25.0,18.0,75,30.35,10.0,North,13.8,-,N/A,,Clear,360,2014-03-22 12:53:00
8:53 AM,26.1,17.1,69,30.37,10.0,North,16.1,20.7,N/A,,Partly Cloudy,360,2014-03-22 13:53:00
9:53 AM,28.0,14.0,56,30.40,10.0,North,13.8,20.7,N/A,,Clear,360,2014-03-22 14:53:00
10:53 AM,30.9,12.9,47,30.42,10.0,North,16.1,23.0,N/A,,Scattered Clouds,10,2014-03-22 15:53:00
11:53 AM,33.1,12.0,42,30.41,10.0,NNE,13.8,-,N/A,,Mostly Cloudy,20,2014-03-22 16:53:00
12:53 PM,36.0,10.0,34,30.39,10.0,North,17.3,23.0,N/A,,Mostly Cloudy,10,2014-03-22 17:53:00
1:53 PM,37.0,9.0,31,30.38,10.0,NNE,12.7,24.2,N/A,,Clear,20,2014-03-22 18:53:00
2:53 PM,37.9,9.0,30,30.38,10.0,North,13.8,21.9,N/A,,Scattered Clouds,360,2014-03-22 19:53:00
3:53 PM,37.9,6.1,27,30.37,10.0,North,15.0,24.2,N/A,,Overcast,10,2014-03-22 20:53:00
4:53 PM,36.0,5.0,27,30.38,10.0,North,12.7,24.2,N/A,,Overcast,360,2014-03-22 21:53:00
5:53 PM,35.1,5.0,28,30.38,10.0,North,15.0,-,N/A,,Overcast,10,2014-03-22 22:53:00
6:53 PM,34.0,8.1,34,30.40,10.0,North,15.0,26.5,N/A,,Overcast,10,2014-03-22 23:53:00
7:53 PM,32.0,9.0,38,30.42,10.0,North,17.3,24.2,N/A,,Overcast,10,2014-03-23 00:53:00
8:53 PM,30.9,7.0,37,30.45,10.0,NNE,13.8,26.5,N/A,,Overcast,20,2014-03-23 01:53:00
9:53 PM,30.0,9.0,41,30.48,10.0,North,11.5,-,N/A,,Overcast,10,2014-03-23 02:53:00
10:53 PM,28.9,12.0,49,30.51,10.0,North,12.7,-,0.00,,Overcast,360,2014-03-23 03:53:00
11:53 PM,27.0,12.9,56,30.54,10.0,North,11.5,20.7,N/A,,Overcast,360,2014-03-23 04:53:00